Time;durP1;ratioP1;P1;durP2;ratioP2;P2;SDS_P1;SDS_P2;PMS_P1;PMS_P2;Temp;Humidity;BMP_temperature;BMP_pressure;BME280_temperature;BME280_humidity;BME280_pressure;Samples;Min_cycle;Max_cycle;Signal;HPM_P1;HPM_P2
2024/03/11 00:01:07;;;;;;;;;;;;;;;8.95;100.00;98955.00;5031987;28;19917;-79
2024/03/11 00:03:33;;;;;;;;;;;;;;;8.87;100.00;98948.03;5031928;28;20485;-78
2024/03/11 00:05:58;;;;;;;;;;;;;;;8.84;100.00;98943.38;5031929;28;20322;-79
2024/03/11 00:08:25;;;;;;;;;;;;;;;8.86;100.00;98943.72;5030284;28;19932;-78
2024/03/11 00:10:55;;;;;;;;;;;;;;;8.92;100.00;98960.59;5031732;28;20456;-79
2024/03/11 00:13:22;;;;;;;;;;;;;;;8.92;100.00;98946.81;5031807;28;19917;-78
2024/03/11 00:15:50;;;;;;;;;;;;;;;8.91;100.00;98954.28;5030209;28;19921;-79
2024/03/11 00:18:16;;;;;;;;;;;;;;;8.94;100.00;98958.94;5031637;28;19928;-79
2024/03/11 00:20:42;;;;;;;;;;;;;;;8.89;100.00;98966.91;5031533;28;19967;-79
2024/03/11 00:23:07;;;;;;;;;;;;;;;8.83;100.00;98961.09;5030450;28;19959;-79
2024/03/11 00:25:33;;;;;;;;;;;;;;;8.74;100.00;98954.59;5030388;28;20019;-80
2024/03/11 00:27:59;;;;;;;;;;;;;;;8.77;100.00;98959.25;5014144;28;19924;-79
2024/03/11 00:30:24;;;;;;;;;;;;;;;8.72;100.00;98957.75;5031553;28;20016;-80
2024/03/11 00:32:52;;;;;;;;;;;;;;;8.78;100.00;98945.06;5030016;28;20430;-79
2024/03/11 00:35:18;;;;;;;;;;;;;;;8.81;100.00;98949.72;5030402;28;19960;-79
2024/03/11 00:37:45;;;;;;;;;;;;;;;8.78;100.00;98952.53;5030159;28;19964;-79
2024/03/11 00:40:10;;;;;;;;;;;;;;;8.76;100.00;98950.19;5031296;28;19917;-79
2024/03/11 00:42:38;;;;;;;;;;;;;;;8.79;100.00;98954.88;5029542;28;19917;-80
2024/03/11 00:45:05;;;;;;;;;;;;;;;8.75;100.00;98945.09;5029870;28;20456;-79
2024/03/11 00:47:30;;;;;;;;;;;;;;;8.68;100.00;98942.47;5030413;28;19917;-79
2024/03/11 00:49:56;;;;;;;;;;;;;;;8.74;100.00;98949.81;5031065;28;20414;-79
2024/03/11 00:52:22;;;;;;;;;;;;;;;8.75;100.00;98948.63;5030054;28;19917;-79
2024/03/11 00:54:47;;;;;;;;;;;;;;;8.69;100.00;98950.31;5013412;28;20443;-79
2024/03/11 00:57:14;;;;;;;;;;;;;;;8.72;100.00;98951.47;5030164;28;20679;-79
2024/03/11 00:59:40;;;;;;;;;;;;;;;8.69;100.00;98952.28;5029774;28;20385;-79
2024/03/11 01:02:07;;;;;;;;;;;;;;;8.60;100.00;98958.31;5030139;28;19917;-80
2024/03/11 01:04:32;;;;;;;;;;;;;;;8.56;100.00;98955.59;5031416;28;19917;-79
2024/03/11 01:06:59;;;;;;;;;;;;;;;8.45;100.00;98956.97;5016674;28;20016;-80
2024/03/11 01:09:25;;;;;;;;;;;;;;;8.45;100.00;98959.72;5034540;28;19948;-79
2024/03/11 01:11:50;;;;;;;;;;;;;;;8.36;100.00;98960.25;5030070;28;19963;-79
2024/03/11 01:14:15;;;;;;;;;;;;;;;8.36;100.00;98964.97;5017333;28;19962;-79
2024/03/11 01:16:41;;;;;;;;;;;;;;;8.42;100.00;98961.34;5033784;28;19971;-80
2024/03/11 01:19:11;;;;;;;;;;;;;;;8.45;100.00;98963.25;5033529;28;20288;-80
2024/03/11 01:21:36;;;;;;;;;;;;;;;8.56;100.00;98955.59;5033776;28;20410;-79
2024/03/11 01:24:03;;;;;;;;;;;;;;;8.61;100.00;98961.88;5017193;28;19917;-79
2024/03/11 01:26:29;;;;;;;;;;;;;;;8.68;100.00;98957.00;5035073;28;20396;-79
2024/03/11 01:28:54;;;;;;;;;;;;;;;8.76;100.00;98966.72;5034700;28;19917;-79
2024/03/11 01:31:23;;;;;;;;;;;;;;;8.82;100.00;98958.75;5035052;28;19917;-79
2024/03/11 01:33:48;;;;;;;;;;;;;;;8.88;100.00;98954.34;5033564;28;19917;-79
2024/03/11 01:36:14;;;;;;;;;;;;;;;8.94;100.00;98953.44;5033422;28;19921;-79
2024/03/11 01:38:39;;;;;;;;;;;;;;;8.97;100.00;98947.09;5033314;28;20078;-79
2024/03/11 01:41:05;;;;;;;;;;;;;;;8.95;100.00;98955.00;5034596;28;20016;-79
2024/03/11 01:43:30;;;;;;;;;;;;;;;9.03;100.00;98955.66;5033244;28;20063;-78
2024/03/11 01:45:55;;;;;;;;;;;;;;;9.09;100.00;98955.97;5033478;28;19924;-79
2024/03/11 01:48:21;;;;;;;;;;;;;;;9.17;100.00;98965.66;5030488;28;19921;-79
2024/03/11 01:50:47;;;;;;;;;;;;;;;9.25;100.00;98967.09;5037376;28;20317;-79
2024/03/11 01:53:14;;;;;;;;;;;;;;;9.21;100.00;98960.88;5023616;28;20004;-80
2024/03/11 01:55:40;;;;;;;;;;;;;;;9.17;100.00;98969.19;5031012;28;19919;-79
2024/03/11 01:58:06;;;;;;;;;;;;;;;9.20;100.00;98964.81;5034505;28;19913;-79
2024/03/11 02:00:32;;;;;;;;;;;;;;;9.23;100.00;98970.25;5046261;28;19917;-79
2024/03/11 02:02:57;;;;;;;;;;;;;;;9.25;100.00;98967.88;5042734;28;19924;-79
2024/03/11 02:05:24;;;;;;;;;;;;;;;9.26;100.00;98963.13;5019530;28;20466;-78
2024/03/11 02:07:56;;;;;;;;;;;;;;;9.27;100.00;98967.47;5034055;28;19929;-80
2024/03/11 02:10:23;;;;;;;;;;;;;;;9.19;100.00;98958.53;5033903;28;20417;-79
2024/03/11 02:12:48;;;;;;;;;;;;;;;9.16;100.00;98958.59;5033923;28;19917;-79
2024/03/11 02:15:14;;;;;;;;;;;;;;;9.17;100.00;98951.88;5034219;28;19917;-78
2024/03/11 02:17:41;;;;;;;;;;;;;;;9.17;100.00;98954.63;5032769;28;19971;-79
2024/03/11 02:20:18;;;;;;;;;;;;;;;9.19;100.00;98941.22;5032877;28;20059;-82
2024/03/11 02:22:44;;;;;;;;;;;;;;;9.18;100.00;98936.88;5032562;28;19921;-79
2024/03/11 02:25:14;;;;;;;;;;;;;;;9.20;100.00;98940.78;5033818;28;19940;-79
2024/03/11 02:27:40;;;;;;;;;;;;;;;9.13;100.00;98934.63;5032550;28;19917;-79
2024/03/11 02:30:07;;;;;;;;;;;;;;;9.10;100.00;98927.22;5016055;28;20375;-79
2024/03/11 02:32:33;;;;;;;;;;;;;;;9.11;100.00;98925.97;5032489;28;19921;-79
2024/03/11 02:34:58;;;;;;;;;;;;;;;9.12;100.00;98925.56;5032388;28;19917;-78
2024/03/11 02:37:23;;;;;;;;;;;;;;;9.17;100.00;98925.09;5032245;28;19986;-79
2024/03/11 02:39:49;;;;;;;;;;;;;;;9.16;100.00;98920.75;5015625;28;20000;-79
2024/03/11 02:42:14;;;;;;;;;;;;;;;9.15;100.00;98913.72;5032194;28;19917;-79
2024/03/11 02:44:39;;;;;;;;;;;;;;;9.24;100.00;98913.16;5033714;28;20008;-79
2024/03/11 02:47:05;;;;;;;;;;;;;;;9.27;100.00;98915.06;5015337;28;20433;-79
2024/03/11 02:49:32;;;;;;;;;;;;;;;9.21;100.00;98920.31;5032183;28;19956;-79
2024/03/11 02:51:58;;;;;;;;;;;;;;;9.26;100.00;98930.06;5031902;28;19918;-79
2024/03/11 02:54:26;;;;;;;;;;;;;;;9.25;100.00;98920.22;5032107;28;19990;-79
2024/03/11 02:56:51;;;;;;;;;;;;;;;9.27;100.00;98915.84;5015352;28;20422;-79
2024/03/11 02:59:16;;;;;;;;;;;;;;;9.36;100.00;98920.78;5031938;28;20028;-79
2024/03/11 03:01:42;;;;;;;;;;;;;;;9.42;100.00;98923.84;5031985;28;19925;-79
2024/03/11 03:04:07;;;;;;;;;;;;;;;9.48;100.00;98906.38;5031963;28;20298;-80
2024/03/11 03:06:33;;;;;;;;;;;;;;;9.51;100.00;98902.78;5035854;28;20262;-79
2024/03/11 03:08:58;;;;;;;;;;;;;;;9.51;100.00;98913.81;5020635;28;19929;-79
2024/03/11 03:11:23;;;;;;;;;;;;;;;9.51;100.00;98902.78;5033516;28;19921;-79
2024/03/11 03:13:48;;;;;;;;;;;;;;;9.48;100.00;98913.88;5042117;28;19916;-79
2024/03/11 03:16:14;;;;;;;;;;;;;;;9.50;100.00;98911.47;5031393;28;19923;-79
2024/03/11 03:18:40;;;;;;;;;;;;;;;9.46;100.00;98908.81;5025923;28;19913;-80
2024/03/11 03:21:06;;;;;;;;;;;;;;;9.32;100.00;98906.31;5034882;28;19917;-79
2024/03/11 03:23:32;;;;;;;;;;;;;;;9.30;100.00;98903.97;5014784;28;19917;-79
2024/03/11 03:25:57;;;;;;;;;;;;;;;9.16;100.00;98904.22;5031547;28;19943;-80
2024/03/11 03:28:23;;;;;;;;;;;;;;;9.20;100.00;98898.66;5014544;28;20040;-79
2024/03/11 03:30:50;;;;;;;;;;;;;;;9.21;100.00;98892.72;5031385;28;19917;-80
2024/03/11 03:33:15;;;;;;;;;;;;;;;9.12;100.00;98902.75;5043054;28;20374;-79
2024/03/11 03:35:41;;;;;;;;;;;;;;;9.11;100.00;98909.44;5017736;28;19924;-79
2024/03/11 03:38:06;;;;;;;;;;;;;;;9.27;100.00;98917.84;5031050;28;19962;-79
2024/03/11 03:40:31;;;;;;;;;;;;;;;9.40;100.00;98921.53;5034891;28;19917;-79
2024/03/11 03:42:58;;;;;;;;;;;;;;;9.35;100.00;98925.53;5020932;28;20000;-79
2024/03/11 03:45:23;;;;;;;;;;;;;;;9.48;100.00;98922.94;5028255;28;20446;-79
2024/03/11 03:47:48;;;;;;;;;;;;;;;9.50;100.00;98917.00;5031392;28;19924;-80
2024/03/11 03:50:14;;;;;;;;;;;;;;;9.51;100.00;98916.59;5031000;28;19917;-79
2024/03/11 03:52:44;;;;;;;;;;;;;;;9.53;100.00;98916.91;5032066;28;20311;-79
2024/03/11 03:55:12;;;;;;;;;;;;;;;9.63;100.00;98920.69;5014089;28;20314;-79
2024/03/11 03:57:42;;;;;;;;;;;;;;;9.63;100.00;98921.47;5030904;28;20465;-79
2024/03/11 04:00:15;;;;;;;;;;;;;;;9.65;100.00;98910.75;5014259;28;19921;-79
2024/03/11 04:02:50;;;;;;;;;;;;;;;9.66;100.00;98897.75;5030810;28;19917;-79
2024/03/11 04:05:17;;;;;;;;;;;;;;;9.57;100.00;98903.84;5030630;28;19921;-79
2024/03/11 04:07:42;;;;;;;;;;;;;;;9.43;100.00;98912.41;5030523;28;19932;-79
2024/03/11 04:10:14;;;;;;;;;;;;;;;9.30;100.00;98900.44;5030887;28;19917;-79
2024/03/11 04:12:47;;;;;;;;;;;;;;;9.28;100.00;98903.59;5030461;28;19917;-79
2024/03/11 04:15:18;;;;;;;;;;;;;;;9.26;100.00;98919.03;5040914;28;20410;-79
2024/03/11 04:17:44;;;;;;;;;;;;;;;9.26;100.00;98919.03;5013967;28;19929;-79
2024/03/11 04:20:13;;;;;;;;;;;;;;;9.32;100.00;98906.31;5020965;28;19940;-79
2024/03/11 04:22:43;;;;;;;;;;;;;;;9.22;100.00;98907.28;5030674;28;20422;-79
2024/03/11 04:25:18;;;;;;;;;;;;;;;9.17;100.00;98910.50;5030843;28;19921;-80
2024/03/11 04:27:45;;;;;;;;;;;;;;;9.11;100.00;98909.44;5013783;28;19917;-79
2024/03/11 04:30:12;;;;;;;;;;;;;;;9.16;100.00;98906.97;5030220;28;19928;-78
2024/03/11 04:32:40;;;;;;;;;;;;;;;9.06;100.00;98913.47;5030336;28;20019;-80
2024/03/11 04:35:05;;;;;;;;;;;;;;;9.06;100.00;98909.94;5013756;28;19917;-79
2024/03/11 04:37:31;;;;;;;;;;;;;;;9.03;100.00;98911.56;5030400;28;19928;-79
2024/03/11 04:39:56;;;;;;;;;;;;;;;9.10;100.00;98925.19;5012999;28;20387;-79
2024/03/11 04:42:21;;;;;;;;;;;;;;;9.17;100.00;98929.81;5013388;28;20322;-78
2024/03/11 04:44:47;;;;;;;;;;;;;;;9.13;100.00;98932.66;5031622;28;19970;-79
2024/03/11 04:47:12;;;;;;;;;;;;;;;9.03;100.00;98930.88;5044743;28;19924;-78
2024/03/11 04:49:38;;;;;;;;;;;;;;;8.96;100.00;98922.72;5013575;28;19917;-78
2024/03/11 04:52:03;;;;;;;;;;;;;;;8.98;100.00;98920.31;5036949;28;19921;-79
2024/03/11 04:54:29;;;;;;;;;;;;;;;9.09;100.00;98928.41;5021476;28;19917;-78
2024/03/11 04:56:54;;;;;;;;;;;;;;;9.08;100.00;98915.81;5029919;28;19921;-78
2024/03/11 04:59:19;;;;;;;;;;;;;;;9.15;100.00;98912.94;5029871;28;19968;-79
2024/03/11 05:01:45;;;;;;;;;;;;;;;9.18;100.00;98920.34;5013455;28;19975;-79
2024/03/11 05:04:10;;;;;;;;;;;;;;;9.18;100.00;98923.09;5043160;28;19913;-78
2024/03/11 05:06:36;;;;;;;;;;;;;;;9.07;100.00;98917.00;5032378;28;20051;-79
2024/03/11 05:09:02;;;;;;;;;;;;;;;9.02;100.00;98926.53;5029727;28;19929;-78
2024/03/11 05:11:30;;;;;;;;;;;;;;;9.03;100.00;98922.59;5034715;28;19917;-78
2024/03/11 05:13:55;;;;;;;;;;;;;;;9.11;100.00;98926.75;5039093;28;20057;-79
2024/03/11 05:16:21;;;;;;;;;;;;;;;9.09;100.00;98909.09;5014657;28;20039;-79
2024/03/11 05:18:47;;;;;;;;;;;;;;;9.05;100.00;98909.16;5031413;28;20361;-79
2024/03/11 05:21:12;;;;;;;;;;;;;;;9.01;100.00;98907.66;5031209;28;20407;-79
2024/03/11 05:23:37;;;;;;;;;;;;;;;9.01;100.00;98908.44;5031253;28;19924;-79
2024/03/11 05:26:03;;;;;;;;;;;;;;;9.01;100.00;98904.91;5031010;28;20551;-78
2024/03/11 05:28:29;;;;;;;;;;;;;;;9.12;100.00;98913.75;5030889;28;19921;-78
2024/03/11 05:30:54;;;;;;;;;;;;;;;9.10;100.00;98911.41;5034265;28;19917;-79
2024/03/11 05:33:20;;;;;;;;;;;;;;;9.08;100.00;98918.56;5018573;28;19917;-79
2024/03/11 05:35:46;;;;;;;;;;;;;;;9.03;100.00;98932.84;5029126;28;19917;-80
2024/03/11 05:38:12;;;;;;;;;;;;;;;9.12;100.00;98941.31;5029720;28;20415;-80
2024/03/11 05:40:38;;;;;;;;;;;;;;;8.91;100.00;98920.44;5029137;28;19988;-79
2024/03/11 05:43:03;;;;;;;;;;;;;;;8.87;100.00;98906.72;5029620;28;20413;-79
2024/03/11 05:45:28;;;;;;;;;;;;;;;9.04;100.00;98923.38;5013393;28;19924;-79
2024/03/11 05:47:54;;;;;;;;;;;;;;;9.06;100.00;98924.50;5013385;28;19918;-79
2024/03/11 05:50:20;;;;;;;;;;;;;;;8.99;100.00;98930.91;5030405;28;19924;-78
2024/03/11 05:52:47;;;;;;;;;;;;;;;9.14;100.00;98947.22;5033293;28;19920;-79
2024/03/11 05:55:13;;;;;;;;;;;;;;;9.16;100.00;98933.78;5033146;28;19917;-78
2024/03/11 05:57:39;;;;;;;;;;;;;;;9.12;100.00;98919.28;5034359;28;19913;-79
2024/03/11 06:00:09;;;;;;;;;;;;;;;9.04;100.00;98910.38;5047490;28;19921;-78
2024/03/11 06:02:36;;;;;;;;;;;;;;;9.00;100.00;98912.41;5017418;28;20299;-80
2024/03/11 06:05:02;;;;;;;;;;;;;;;8.97;100.00;98911.28;5033195;28;19928;-79
2024/03/11 06:07:28;;;;;;;;;;;;;;;8.93;100.00;98909.75;5033075;28;19928;-81
2024/03/11 06:09:53;;;;;;;;;;;;;;;8.97;100.00;98905.00;5016957;28;19925;-79
2024/03/11 06:12:22;;;;;;;;;;;;;;;9.01;100.00;98919.47;5033176;28;19918;-80
2024/03/11 06:14:47;;;;;;;;;;;;;;;8.96;100.00;98920.75;5027531;28;20011;-81
2024/03/11 06:17:13;;;;;;;;;;;;;;;8.93;100.00;98918.81;5029197;28;20403;-79
2024/03/11 06:19:38;;;;;;;;;;;;;;;8.95;100.00;98915.63;5011945;28;19921;-79
2024/03/11 06:22:04;;;;;;;;;;;;;;;8.99;100.00;98928.16;5029614;28;19936;-79
2024/03/11 06:24:30;;;;;;;;;;;;;;;9.14;100.00;98925.94;5028613;28;19979;-80
2024/03/11 06:26:56;;;;;;;;;;;;;;;9.02;100.00;98925.75;5032775;28;20318;-79
2024/03/11 06:29:21;;;;;;;;;;;;;;;9.22;100.00;98935.63;5032787;28;19963;-79
2024/03/11 06:31:48;;;;;;;;;;;;;;;9.23;100.00;98928.91;5032480;28;19913;-78
2024/03/11 06:34:14;;;;;;;;;;;;;;;9.05;100.00;98928.44;5047340;28;19921;-79
2024/03/11 06:36:41;;;;;;;;;;;;;;;9.10;100.00;98921.69;5011443;28;20000;-79
2024/03/11 06:39:07;;;;;;;;;;;;;;;8.89;100.00;98920.84;5032313;28;20378;-78
2024/03/11 06:41:32;;;;;;;;;;;;;;;8.90;100.00;98916.13;5028778;28;19925;-79
2024/03/11 06:44:00;;;;;;;;;;;;;;;8.95;100.00;98919.19;5026958;28;19920;-81
2024/03/11 06:46:26;;;;;;;;;;;;;;;9.00;100.00;98928.94;5015589;28;19913;-79
2024/03/11 06:48:51;;;;;;;;;;;;;;;8.97;100.00;98929.78;5023468;28;19944;-82
2024/03/11 06:51:16;;;;;;;;;;;;;;;8.94;100.00;98936.13;5024016;28;19955;-79
2024/03/11 06:53:42;;;;;;;;;;;;;;;8.96;100.00;98948.28;5004967;28;19914;-79
2024/03/11 06:56:07;;;;;;;;;;;;;;;9.06;100.00;98948.53;5022791;28;20391;-79
2024/03/11 06:58:33;;;;;;;;;;;;;;;9.07;100.00;98947.31;5038912;28;19921;-79
2024/03/11 07:00:58;;;;;;;;;;;;;;;9.13;100.00;98948.41;5021898;28;19928;-79
2024/03/11 07:03:26;;;;;;;;;;;;;;;9.12;100.00;98952.34;5013156;28;19921;-79
2024/03/11 07:05:51;;;;;;;;;;;;;;;9.23;100.00;98964.75;5031700;28;19928;-79
2024/03/11 07:08:16;;;;;;;;;;;;;;;9.37;100.00;98969.22;5031950;28;19928;-79
2024/03/11 07:10:42;;;;;;;;;;;;;;;9.45;100.00;98969.91;5033886;28;20450;-80
2024/03/11 07:13:07;;;;;;;;;;;;;;;9.26;100.00;98976.94;5021491;28;19921;-79
2024/03/11 07:15:33;;;;;;;;;;;;;;;9.32;100.00;98978.00;5029149;28;19940;-79
2024/03/11 07:17:58;;;;;;;;;;;;;;;9.38;100.00;98985.38;5042270;28;20341;-79
2024/03/11 07:20:24;;;;;;;;;;;;;;;9.37;100.00;98980.25;5014499;28;19921;-79
2024/03/11 07:22:51;;;;;;;;;;;;;;;9.34;100.00;98975.59;5030043;28;19968;-80
2024/03/11 07:25:17;;;;;;;;;;;;;;;9.29;100.00;98974.09;5032838;28;19926;-79
2024/03/11 07:27:47;;;;;;;;;;;;;;;9.28;100.00;98969.78;5031197;28;20371;-79
2024/03/11 07:30:13;;;;;;;;;;;;;;;9.39;100.00;98975.13;5029753;28;19921;-80
2024/03/11 07:32:38;;;;;;;;;;;;;;;9.53;100.00;98960.25;5034197;28;19953;-80
2024/03/11 07:35:04;;;;;;;;;;;;;;;9.61;100.00;98956.97;5021794;28;19926;-80
2024/03/11 07:37:29;;;;;;;;;;;;;;;9.77;100.00;98961.75;5014470;28;20425;-81
2024/03/11 07:39:54;;;;;;;;;;;;;;;9.58;100.00;98963.34;5031799;28;20405;-80
2024/03/11 07:42:23;;;;;;;;;;;;;;;9.70;100.00;98968.22;5018400;28;19935;-79
2024/03/11 07:44:48;;;;;;;;;;;;;;;9.73;100.00;98977.63;5042661;28;19920;-79
2024/03/11 07:47:14;;;;;;;;;;;;;;;9.80;100.00;98983.78;5031750;28;20320;-79
2024/03/11 07:49:39;;;;;;;;;;;;;;;9.92;100.00;98976.06;5032397;28;20000;-82
2024/03/11 07:52:06;;;;;;;;;;;;;;;9.85;100.00;98977.00;5013743;28;19913;-80
2024/03/11 07:54:31;;;;;;;;;;;;;;;9.88;100.00;98980.88;5030258;28;20475;-79
2024/03/11 07:56:57;;;;;;;;;;;;;;;10.17;100.00;98973.59;5011999;28;20007;-79
2024/03/11 07:59:22;;;;;;;;;;;;;;;10.16;100.00;98967.31;5028601;28;20009;-81
2024/03/11 08:01:47;;;;;;;;;;;;;;;10.11;100.00;98965.03;5029993;28;19913;-79
2024/03/11 08:04:13;;;;;;;;;;;;;;;9.99;100.00;98975.94;5030286;28;20381;-79
2024/03/11 08:06:39;;;;;;;;;;;;;;;10.06;100.00;98975.78;5028699;28;19917;-79
2024/03/11 08:09:07;;;;;;;;;;;;;;;9.97;100.00;98962.53;5031352;28;20425;-81
2024/03/11 08:11:32;;;;;;;;;;;;;;;9.96;100.00;98965.72;5030713;28;19920;-79
2024/03/11 08:13:57;;;;;;;;;;;;;;;10.07;100.00;98971.81;5043712;28;20023;-79
2024/03/11 08:16:23;;;;;;;;;;;;;;;10.34;100.00;98983.50;5045007;28;20352;-81
2024/03/11 08:18:48;;;;;;;;;;;;;;;10.37;100.00;98963.28;5014236;28;19921;-79
2024/03/11 08:21:13;;;;;;;;;;;;;;;10.37;100.00;98966.03;5030327;28;19929;-82
2024/03/11 08:23:40;;;;;;;;;;;;;;;10.35;100.00;98956.66;5031659;28;20421;-79
2024/03/11 08:26:09;;;;;;;;;;;;;;;10.30;100.00;98952.41;5037277;28;19913;-80
2024/03/11 08:28:38;;;;;;;;;;;;;;;10.28;100.00;98959.56;5018083;28;19975;-80
2024/03/11 08:31:07;;;;;;;;;;;;;;;10.27;100.00;98969.06;5035804;28;19919;-79
2024/03/11 08:33:33;;;;;;;;;;;;;;;10.38;100.00;98964.84;5017176;28;19924;-80
2024/03/11 08:35:58;;;;;;;;;;;;;;;10.24;100.00;98967.94;5031279;28;20019;-81
2024/03/11 08:38:24;;;;;;;;;;;;;;;10.32;100.00;98972.09;5013759;28;19966;-80
2024/03/11 08:40:49;;;;;;;;;;;;;;;10.38;100.00;98970.38;5023283;28;20369;-81
2024/03/11 08:43:14;;;;;;;;;;;;;;;10.47;100.00;98978.88;5022898;28;20003;-81
2024/03/11 08:45:41;;;;;;;;;;;;;;;10.64;100.00;98978.88;5014227;28;19924;-80
2024/03/11 08:48:07;;;;;;;;;;;;;;;10.60;100.00;98985.28;5031712;28;20007;-80
2024/03/11 08:50:32;;;;;;;;;;;;;;;11.00;100.00;98979.59;5013614;28;20010;-82
2024/03/11 08:53:00;;;;;;;;;;;;;;;11.53;100.00;98983.75;5030703;28;19917;-79
2024/03/11 08:55:26;;;;;;;;;;;;;;;11.91;100.00;98985.94;5013936;28;20399;-81
2024/03/11 08:57:53;;;;;;;;;;;;;;;12.01;100.00;98977.31;5022998;28;20013;-79
2024/03/11 09:00:18;;;;;;;;;;;;;;;12.35;98.87;98973.97;5017606;28;19928;-80
2024/03/11 09:02:47;;;;;;;;;;;;;;;12.33;97.32;98967.28;5039823;28;19979;-80
2024/03/11 09:05:12;;;;;;;;;;;;;;;11.98;97.57;98983.75;5017050;28;19921;-81
2024/03/11 09:07:40;;;;;;;;;;;;;;;11.97;98.26;98986.94;5023243;28;19983;-79
2024/03/11 09:10:07;;;;;;;;;;;;;;;11.63;99.77;98985.47;5016996;28;20387;-82
2024/03/11 09:12:32;;;;;;;;;;;;;;;11.59;99.67;98979.25;5030255;28;19983;-80
2024/03/11 09:14:58;;;;;;;;;;;;;;;11.42;100.00;98972.19;5036235;28;20388;-81
2024/03/11 09:17:23;;;;;;;;;;;;;;;11.47;100.00;98974.44;5038502;28;19917;-82
2024/03/11 09:19:48;;;;;;;;;;;;;;;11.20;100.00;98969.22;5029956;28;19967;-79
2024/03/11 09:22:15;;;;;;;;;;;;;;;11.12;100.00;98972.59;5030963;28;19923;-80
2024/03/11 09:24:41;;;;;;;;;;;;;;;11.38;100.00;98966.78;5030974;28;19967;-80
2024/03/11 09:27:07;;;;;;;;;;;;;;;11.42;100.00;98967.44;5032484;28;19924;-79
2024/03/11 09:29:34;;;;;;;;;;;;;;;11.34;100.00;98963.31;5033826;28;19921;-81
2024/03/11 09:32:01;;;;;;;;;;;;;;;11.36;100.00;98958.13;5016931;28;19924;-80
2024/03/11 09:34:29;;;;;;;;;;;;;;;11.54;100.00;98959.63;5032551;28;20298;-80
2024/03/11 09:36:55;;;;;;;;;;;;;;;11.58;100.00;98952.00;5032952;28;19924;-80
2024/03/11 09:39:21;;;;;;;;;;;;;;;11.57;100.00;98959.56;5015238;28;19963;-80
2024/03/11 09:41:49;;;;;;;;;;;;;;;11.84;100.00;98950.91;5014991;28;19917;-80
2024/03/11 09:44:16;;;;;;;;;;;;;;;11.91;100.00;98944.41;5032667;28;19933;-80
2024/03/11 09:46:42;;;;;;;;;;;;;;;12.20;100.00;98945.91;5032892;28;19924;-81
2024/03/11 09:49:08;;;;;;;;;;;;;;;12.25;100.00;98950.09;5023087;28;20375;-82
2024/03/11 09:51:34;;;;;;;;;;;;;;;12.44;98.94;98940.03;5029940;28;20502;-82
2024/03/11 09:53:59;;;;;;;;;;;;;;;12.44;97.63;98946.34;5032833;28;19952;-82
2024/03/11 09:56:25;;;;;;;;;;;;;;;12.63;96.98;98944.59;5033017;28;19913;-80
2024/03/11 09:58:56;;;;;;;;;;;;;;;12.66;96.29;98940.16;5024768;28;19917;-81
2024/03/11 10:01:24;;;;;;;;;;;;;;;12.77;94.51;98940.59;5019367;28;20011;-80
2024/03/11 10:03:50;;;;;;;;;;;;;;;12.83;95.39;98938.81;5033090;28;20306;-80
2024/03/11 10:06:16;;;;;;;;;;;;;;;12.88;94.65;98939.03;5032714;28;19921;-80
2024/03/11 10:08:45;;;;;;;;;;;;;;;12.94;94.41;98942.78;5025334;28;19932;-82
2024/03/11 10:11:14;;;;;;;;;;;;;;;13.16;93.33;98931.75;5019857;28;19925;-82
2024/03/11 10:13:40;;;;;;;;;;;;;;;13.17;91.60;98943.66;5033993;28;19917;-80
2024/03/11 10:16:14;;;;;;;;;;;;;;;13.17;92.54;98947.19;5033977;28;20330;-80
2024/03/11 10:18:48;;;;;;;;;;;;;;;13.31;91.33;98932.06;5034062;28;19979;-80
2024/03/11 10:21:15;;;;;;;;;;;;;;;13.07;91.84;98933.66;5039136;28;19967;-79
2024/03/11 10:23:42;;;;;;;;;;;;;;;13.09;91.07;98931.97;5023964;28;19917;-82
2024/03/11 10:26:17;;;;;;;;;;;;;;;12.85;93.43;98928.81;5032426;28;20294;-81
2024/03/11 10:28:44;;;;;;;;;;;;;;;13.13;92.15;98932.69;5032726;28;20386;-80
2024/03/11 10:31:31;;;;;;;;;;;;;;;13.03;92.26;98929.00;5020636;28;20371;-80
2024/03/11 10:34:12;;;;;;;;;;;;;;;13.17;92.47;98908.34;5049542;28;20509;-82
2024/03/11 10:36:43;;;;;;;;;;;;;;;13.35;90.67;98910.50;5042026;28;19970;-82
2024/03/11 10:39:17;;;;;;;;;;;;;;;13.99;88.16;98908.94;5030834;28;19979;-80
2024/03/11 10:41:42;;;;;;;;;;;;;;;14.01;85.31;98912.06;5032231;28;19948;-79
2024/03/11 10:44:19;;;;;;;;;;;;;;;14.47;84.03;98899.16;5032198;28;20456;-81
2024/03/11 10:46:45;;;;;;;;;;;;;;;14.44;80.71;98891.75;5033256;28;19986;-79
2024/03/11 10:49:13;;;;;;;;;;;;;;;14.95;80.29;98894.03;5032449;28;19913;-81
2024/03/11 10:51:47;;;;;;;;;;;;;;;15.05;78.37;98892.84;5045250;28;19923;-79
2024/03/11 10:54:20;;;;;;;;;;;;;;;15.30;76.43;98878.63;5032181;28;19917;-79
2024/03/11 10:56:45;;;;;;;;;;;;;;;15.80;72.56;98893.13;5032137;28;19916;-79
2024/03/11 10:59:15;;;;;;;;;;;;;;;15.92;71.96;98897.75;5015405;28;19967;-80
2024/03/11 11:01:44;;;;;;;;;;;;;;;15.75;70.49;98882.63;5031665;28;19913;-81
2024/03/11 11:04:15;;;;;;;;;;;;;;;15.30;71.37;98872.28;5032220;28;19955;-78
2024/03/11 11:06:44;;;;;;;;;;;;;;;15.23;73.33;98876.16;5031613;28;19917;-79
2024/03/11 11:09:11;;;;;;;;;;;;;;;15.49;71.14;98862.69;5033037;28;19929;-80
2024/03/11 11:11:51;;;;;;;;;;;;;;;15.79;69.04;98869.31;5033083;28;19920;-79
2024/03/11 11:14:20;;;;;;;;;;;;;;;15.92;69.04;98858.75;5031659;28;19935;-81
2024/03/11 11:16:45;;;;;;;;;;;;;;;15.32;70.22;98850.31;5033136;28;19913;-80
2024/03/11 11:19:13;;;;;;;;;;;;;;;15.31;72.01;98846.75;5046189;28;20785;-80
2024/03/11 11:21:39;;;;;;;;;;;;;;;15.24;72.84;98844.31;5032778;28;19917;-81
2024/03/11 11:24:23;;;;;;;;;;;;;;;15.06;73.02;98831.16;5032863;28;20370;-80
2024/03/11 11:26:48;;;;;;;;;;;;;;;14.27;76.80;98835.63;5043821;28;19916;-80
2024/03/11 11:29:19;;;;;;;;;;;;;;;14.32;77.48;98831.47;5034406;28;19923;-79
2024/03/11 11:31:58;;;;;;;;;;;;;;;14.33;77.96;98830.22;5031724;28;19917;-78
2024/03/11 11:34:44;;;;;;;;;;;;;;;14.80;76.98;98816.00;5028535;28;19917;-79
2024/03/11 11:37:09;;;;;;;;;;;;;;;15.12;75.28;98822.97;5031048;28;20457;-78
2024/03/11 11:39:35;;;;;;;;;;;;;;;14.74;75.33;98800.38;5027746;28;19925;-78
2024/03/11 11:42:02;;;;;;;;;;;;;;;14.63;76.42;98804.38;5024158;28;19925;-78
2024/03/11 11:44:27;;;;;;;;;;;;;;;14.91;74.49;98801.63;5021923;28;19920;-79
2024/03/11 11:46:54;;;;;;;;;;;;;;;14.91;76.07;98798.84;5031468;28;20012;-79
2024/03/11 11:49:21;;;;;;;;;;;;;;;14.38;75.96;98810.19;5031685;28;19917;-80
2024/03/11 11:51:47;;;;;;;;;;;;;;;14.77;75.56;98819.69;5032737;28;20302;-79
2024/03/11 11:54:34;;;;;;;;;;;;;;;14.83;74.91;98814.31;5026556;28;19924;-81
2024/03/11 11:57:04;;;;;;;;;;;;;;;14.81;75.14;98811.19;5018595;28;19928;-79
2024/03/11 11:59:30;;;;;;;;;;;;;;;13.99;78.31;98802.59;5022380;28;19948;-80
2024/03/11 12:02:00;;;;;;;;;;;;;;;13.55;82.51;98801.94;5029500;28;20408;-79
2024/03/11 12:04:25;;;;;;;;;;;;;;;13.76;83.04;98790.00;5028798;28;20462;-78
2024/03/11 12:06:50;;;;;;;;;;;;;;;13.82;82.63;98782.63;5017443;28;20019;-78
2024/03/11 12:09:16;;;;;;;;;;;;;;;14.00;82.13;98793.03;5037884;28;19976;-80
2024/03/11 12:11:49;;;;;;;;;;;;;;;13.88;83.10;98778.03;5012047;28;19961;-81
2024/03/11 12:14:14;;;;;;;;;;;;;;;14.12;81.96;98776.28;5028588;28;19921;-81
2024/03/11 12:16:40;;;;;;;;;;;;;;;14.07;80.91;98778.88;5029571;28;19920;-79
2024/03/11 12:19:05;;;;;;;;;;;;;;;13.67;83.22;98776.88;5029401;28;20338;-79
2024/03/11 12:21:33;;;;;;;;;;;;;;;13.96;83.42;98770.19;5030232;28;19940;-82
2024/03/11 12:24:00;;;;;;;;;;;;;;;14.03;81.50;98753.25;5029563;28;20411;-81
2024/03/11 12:26:27;;;;;;;;;;;;;;;13.76;83.61;98760.25;5030489;28;19917;-82
2024/03/11 12:29:08;;;;;;;;;;;;;;;13.64;85.47;98755.56;5031571;28;19913;-81
2024/03/11 12:31:34;;;;;;;;;;;;;;;14.00;84.20;98748.59;5030282;28;19913;-81
2024/03/11 12:34:08;;;;;;;;;;;;;;;14.05;82.70;98742.44;5044865;28;20364;-79
2024/03/11 12:36:36;;;;;;;;;;;;;;;13.83;83.24;98746.09;5030329;28;19922;-79
2024/03/11 12:39:03;;;;;;;;;;;;;;;13.89;85.58;98737.16;5029925;28;19920;-80
2024/03/11 12:41:35;;;;;;;;;;;;;;;14.13;83.09;98719.47;5042934;28;19916;-81
2024/03/11 12:44:10;;;;;;;;;;;;;;;13.67;83.22;98704.69;5011119;28;19913;-81